EZS07D LFKB-LSGG
Flight info
| Callsign | EZS07D |
|---|---|
| Flight time | 0h 58m |
| Altitude | 30000 |
| Route | AKUTI UM616 PIGOS DCT BARSO/N0399F280 DCT IRMAR DCT KINES |
| Aircraft | A320/M-SDE3FGHIRWY/LB1 |
Departure
| Time | 2026-04-16 12:14 |
|---|---|
| Airport | Bastia-Poretta International airport (LFKB) |
Arrival
| Time | 2026-04-16 13:13 |
|---|---|
| Airport | Geneva International Airport (LSGG) |
| Time | Latitude | Longitude | Altitude | Speed | Heading |
|---|---|---|---|---|---|
| 2026-04-16 11:58 | 42.54778 | 9.48175 | 33 ft | 0 kts | 253° |
| 2026-04-16 12:11 | 42.54775 | 9.48174 | 62 ft | 1 kts | 223° |
| 2026-04-16 12:11 | 42.54770 | 9.48208 | 35 ft | 10 kts | 90° |
| 2026-04-16 12:11 | 42.54713 | 9.48328 | 35 ft | 17 kts | 175° |
| 2026-04-16 12:12 | 42.54601 | 9.48346 | 35 ft | 15 kts | 169° |
| 2026-04-16 12:12 | 42.54458 | 9.48392 | 34 ft | 29 kts | 163° |
| 2026-04-16 12:12 | 42.54231 | 9.48487 | 35 ft | 36 kts | 162° |
| 2026-04-16 12:12 | 42.54159 | 9.48745 | 35 ft | 34 kts | 58° |
| 2026-04-16 12:13 | 42.54245 | 9.48828 | 36 ft | 4 kts | 316° |
| 2026-04-16 12:13 | 42.54265 | 9.48796 | 35 ft | 5 kts | 310° |
| 2026-04-16 12:13 | 42.54296 | 9.48778 | 35 ft | 5 kts | 344° |
| 2026-04-16 12:13 | 42.54335 | 9.48762 | 34 ft | 10 kts | 343° |
| 2026-04-16 12:14 | 42.54645 | 9.48634 | 33 ft | 84 kts | 343° |
| 2026-04-16 12:14 | 42.55399 | 9.48316 | 37 ft | 141 kts | 342° |
| 2026-04-16 12:14 | 42.56400 | 9.47902 | 529 ft | 153 kts | 344° |
| 2026-04-16 12:14 | 42.57419 | 9.47464 | 1253 ft | 156 kts | 343° |
| 2026-04-16 12:15 | 42.58531 | 9.46988 | 1681 ft | 178 kts | 342° |
| 2026-04-16 12:15 | 42.59769 | 9.46472 | 2193 ft | 197 kts | 342° |
| 2026-04-16 12:15 | 42.61139 | 9.45900 | 2742 ft | 218 kts | 343° |
| 2026-04-16 12:15 | 42.62659 | 9.45250 | 3362 ft | 240 kts | 341° |
| 2026-04-16 12:16 | 42.64203 | 9.44158 | 3944 ft | 260 kts | 328° |
| 2026-04-16 12:16 | 42.65644 | 9.42604 | 4844 ft | 268 kts | 319° |
| 2026-04-16 12:16 | 42.67017 | 9.40847 | 5813 ft | 272 kts | 316° |
| 2026-04-16 12:16 | 42.68377 | 9.39047 | 6763 ft | 274 kts | 316° |
| 2026-04-16 12:17 | 42.69764 | 9.37238 | 7671 ft | 277 kts | 318° |
| 2026-04-16 12:17 | 42.71183 | 9.35435 | 8547 ft | 280 kts | 319° |
| 2026-04-16 12:17 | 42.72689 | 9.33723 | 9414 ft | 283 kts | 328° |
| 2026-04-16 12:17 | 42.74388 | 9.32341 | 10260 ft | 286 kts | 331° |
| 2026-04-16 12:18 | 42.76155 | 9.30954 | 10631 ft | 308 kts | 332° |
| 2026-04-16 12:18 | 42.78077 | 9.29457 | 11027 ft | 326 kts | 332° |
| 2026-04-16 12:18 | 42.80064 | 9.27907 | 11722 ft | 332 kts | 331° |
| 2026-04-16 12:18 | 42.82087 | 9.26321 | 12480 ft | 337 kts | 332° |
| 2026-04-16 12:19 | 42.84129 | 9.24710 | 13240 ft | 341 kts | 331° |
| 2026-04-16 12:19 | 42.86194 | 9.23075 | 13952 ft | 345 kts | 330° |
| 2026-04-16 12:19 | 42.88282 | 9.21422 | 14627 ft | 348 kts | 331° |
| 2026-04-16 12:19 | 42.90388 | 9.19756 | 15299 ft | 351 kts | 331° |
| 2026-04-16 12:20 | 42.92515 | 9.18071 | 15970 ft | 354 kts | 331° |
| 2026-04-16 12:20 | 42.94655 | 9.16375 | 16647 ft | 357 kts | 331° |
| 2026-04-16 12:20 | 42.96785 | 9.14685 | 17319 ft | 359 kts | 331° |
| 2026-04-16 12:20 | 42.98961 | 9.12960 | 17989 ft | 362 kts | 332° |
| 2026-04-16 12:21 | 43.01153 | 9.11226 | 18625 ft | 364 kts | 332° |
| 2026-04-16 12:21 | 43.03355 | 9.09485 | 19196 ft | 367 kts | 332° |
| 2026-04-16 12:21 | 43.05572 | 9.07726 | 19770 ft | 369 kts | 331° |
| 2026-04-16 12:21 | 43.07796 | 9.05954 | 20343 ft | 371 kts | 331° |
| 2026-04-16 12:22 | 43.10035 | 9.04170 | 20899 ft | 374 kts | 331° |
| 2026-04-16 12:22 | 43.12295 | 9.02371 | 21447 ft | 376 kts | 331° |
| 2026-04-16 12:22 | 43.14539 | 9.00583 | 21969 ft | 379 kts | 331° |
| 2026-04-16 12:22 | 43.16824 | 8.98762 | 22489 ft | 381 kts | 331° |
| 2026-04-16 12:23 | 43.19119 | 8.96894 | 23006 ft | 385 kts | 328° |
| 2026-04-16 12:23 | 43.21202 | 8.94563 | 23508 ft | 390 kts | 316° |
| 2026-04-16 12:23 | 43.22922 | 8.91666 | 23950 ft | 395 kts | 305° |
| 2026-04-16 12:23 | 43.24198 | 8.88308 | 24362 ft | 401 kts | 294° |
| 2026-04-16 12:24 | 43.25143 | 8.84687 | 24775 ft | 403 kts | 292° |
| 2026-04-16 12:24 | 43.26080 | 8.81050 | 25187 ft | 405 kts | 292° |
| 2026-04-16 12:24 | 43.27026 | 8.77386 | 25594 ft | 408 kts | 292° |
| 2026-04-16 12:24 | 43.27975 | 8.73710 | 25993 ft | 410 kts | 292° |
| 2026-04-16 12:25 | 43.28922 | 8.70056 | 26379 ft | 412 kts | 291° |
| 2026-04-16 12:25 | 43.29881 | 8.66343 | 26794 ft | 414 kts | 291° |
| 2026-04-16 12:25 | 43.30844 | 8.62600 | 27175 ft | 416 kts | 291° |
| 2026-04-16 12:25 | 43.31805 | 8.58849 | 27570 ft | 417 kts | 291° |
| 2026-04-16 12:26 | 43.32774 | 8.55071 | 27953 ft | 419 kts | 291° |
| 2026-04-16 12:26 | 43.33745 | 8.51277 | 28337 ft | 422 kts | 291° |
| 2026-04-16 12:26 | 43.34720 | 8.47459 | 28716 ft | 424 kts | 291° |
| 2026-04-16 12:26 | 43.35697 | 8.43627 | 29076 ft | 426 kts | 291° |
| 2026-04-16 12:27 | 43.36665 | 8.39829 | 29436 ft | 428 kts | 291° |
| 2026-04-16 12:27 | 43.37651 | 8.35960 | 29791 ft | 430 kts | 291° |
| 2026-04-16 12:27 | 43.38644 | 8.32056 | 30086 ft | 431 kts | 290° |
| 2026-04-16 12:27 | 43.39621 | 8.28203 | 30137 ft | 419 kts | 290° |
| 2026-04-16 12:28 | 43.40561 | 8.24481 | 30135 ft | 405 kts | 290° |
| 2026-04-16 12:28 | 43.41481 | 8.20838 | 30135 ft | 400 kts | 290° |
| 2026-04-16 12:28 | 43.43292 | 8.13650 | 30135 ft | 398 kts | 290° |
| 2026-04-16 12:29 | 43.45092 | 8.06483 | 30135 ft | 398 kts | 290° |
| 2026-04-16 12:29 | 43.46898 | 7.99268 | 30136 ft | 398 kts | 290° |
| 2026-04-16 12:30 | 43.48703 | 7.92061 | 30134 ft | 397 kts | 290° |
| 2026-04-16 12:30 | 43.50489 | 7.84869 | 30132 ft | 396 kts | 290° |
| 2026-04-16 12:31 | 43.52261 | 7.77728 | 30133 ft | 396 kts | 290° |
| 2026-04-16 12:31 | 43.54041 | 7.70553 | 30129 ft | 395 kts | 290° |
| 2026-04-16 12:32 | 43.55806 | 7.63372 | 30122 ft | 395 kts | 290° |
| 2026-04-16 12:32 | 43.57572 | 7.56201 | 30110 ft | 395 kts | 290° |
| 2026-04-16 12:33 | 43.59331 | 7.49017 | 30115 ft | 395 kts | 290° |
| 2026-04-16 12:33 | 43.61143 | 7.41879 | 30118 ft | 393 kts | 296° |
| 2026-04-16 12:34 | 43.64227 | 7.35727 | 30119 ft | 390 kts | 317° |
| 2026-04-16 12:34 | 43.68575 | 7.31343 | 30118 ft | 389 kts | 327° |
| 2026-04-16 12:35 | 43.73099 | 7.27209 | 30116 ft | 390 kts | 326° |
| 2026-04-16 12:35 | 43.77627 | 7.23037 | 30118 ft | 390 kts | 326° |
| 2026-04-16 12:36 | 43.82111 | 7.18902 | 30122 ft | 390 kts | 327° |
| 2026-04-16 12:36 | 43.86639 | 7.14737 | 30115 ft | 389 kts | 327° |
| 2026-04-16 12:37 | 43.91083 | 7.10645 | 30114 ft | 389 kts | 326° |
| 2026-04-16 12:37 | 43.95576 | 7.06493 | 30119 ft | 390 kts | 326° |
| 2026-04-16 12:38 | 44.00094 | 7.02307 | 30118 ft | 390 kts | 326° |
| 2026-04-16 12:38 | 44.04605 | 6.98121 | 30123 ft | 389 kts | 327° |
| 2026-04-16 12:39 | 44.09100 | 6.93940 | 30118 ft | 389 kts | 327° |
| 2026-04-16 12:39 | 44.13722 | 6.90049 | 30119 ft | 388 kts | 338° |
| 2026-04-16 12:40 | 44.18046 | 6.88490 | 30119 ft | 388 kts | 353° |
| 2026-04-16 12:40 | 44.24286 | 6.87559 | 30122 ft | 388 kts | 353° |
| 2026-04-16 12:41 | 44.28777 | 6.86869 | 30124 ft | 387 kts | 353° |
| 2026-04-16 12:41 | 44.34100 | 6.86054 | 30129 ft | 386 kts | 353° |
| 2026-04-16 12:42 | 44.39454 | 6.85243 | 30131 ft | 386 kts | 353° |
| 2026-04-16 12:42 | 44.44806 | 6.84425 | 30140 ft | 386 kts | 353° |
| 2026-04-16 12:43 | 44.50110 | 6.83622 | 30135 ft | 385 kts | 353° |
| 2026-04-16 12:43 | 44.55436 | 6.82814 | 30135 ft | 384 kts | 353° |
| 2026-04-16 12:44 | 44.60759 | 6.82002 | 30139 ft | 384 kts | 353° |
| 2026-04-16 12:44 | 44.66073 | 6.81186 | 30137 ft | 383 kts | 353° |
| 2026-04-16 12:45 | 44.71340 | 6.80377 | 30138 ft | 383 kts | 353° |
| 2026-04-16 12:45 | 44.76643 | 6.79559 | 30128 ft | 382 kts | 353° |
| 2026-04-16 12:46 | 44.81943 | 6.78808 | 30128 ft | 382 kts | 355° |
| 2026-04-16 12:46 | 44.87239 | 6.78438 | 30130 ft | 383 kts | 357° |
| 2026-04-16 12:47 | 44.92568 | 6.78188 | 30136 ft | 383 kts | 357° |
| 2026-04-16 12:47 | 44.97902 | 6.77887 | 30141 ft | 383 kts | 356° |
| 2026-04-16 12:48 | 45.03231 | 6.77532 | 30148 ft | 384 kts | 356° |
| 2026-04-16 12:48 | 45.08561 | 6.77168 | 30143 ft | 383 kts | 356° |
| 2026-04-16 12:49 | 45.13874 | 6.76809 | 30154 ft | 384 kts | 356° |
| 2026-04-16 12:49 | 45.19214 | 6.76455 | 30161 ft | 384 kts | 356° |
| 2026-04-16 12:50 | 45.24555 | 6.76102 | 30152 ft | 384 kts | 356° |
| 2026-04-16 12:50 | 45.29903 | 6.75745 | 30161 ft | 385 kts | 356° |
| 2026-04-16 12:51 | 45.35200 | 6.74976 | 30174 ft | 384 kts | 348° |
| 2026-04-16 12:51 | 45.37824 | 6.74264 | 30056 ft | 382 kts | 348° |
| 2026-04-16 12:51 | 45.40414 | 6.73561 | 29780 ft | 377 kts | 348° |
| 2026-04-16 12:52 | 45.42984 | 6.72863 | 29496 ft | 374 kts | 348° |
| 2026-04-16 12:52 | 45.45532 | 6.72171 | 29221 ft | 372 kts | 348° |
| 2026-04-16 12:52 | 45.48082 | 6.71477 | 28944 ft | 372 kts | 348° |
| 2026-04-16 12:52 | 45.50624 | 6.70785 | 28671 ft | 370 kts | 348° |
| 2026-04-16 12:53 | 45.53145 | 6.70098 | 28400 ft | 369 kts | 348° |
| 2026-04-16 12:53 | 45.55669 | 6.69428 | 28130 ft | 367 kts | 348° |
| 2026-04-16 12:53 | 45.58177 | 6.68785 | 27870 ft | 366 kts | 348° |
| 2026-04-16 12:53 | 45.60684 | 6.68149 | 27607 ft | 365 kts | 348° |
| 2026-04-16 12:54 | 45.63181 | 6.67510 | 27345 ft | 365 kts | 348° |
| 2026-04-16 12:54 | 45.65661 | 6.66869 | 27047 ft | 358 kts | 348° |
| 2026-04-16 12:54 | 45.68071 | 6.66240 | 26623 ft | 354 kts | 348° |
| 2026-04-16 12:54 | 45.70496 | 6.65608 | 26205 ft | 352 kts | 348° |
| 2026-04-16 12:55 | 45.72893 | 6.64985 | 25786 ft | 349 kts | 348° |
| 2026-04-16 12:55 | 45.75275 | 6.64367 | 25328 ft | 347 kts | 348° |
| 2026-04-16 12:55 | 45.77649 | 6.63737 | 24887 ft | 346 kts | 348° |
| 2026-04-16 12:55 | 45.80013 | 6.63095 | 24442 ft | 344 kts | 348° |
| 2026-04-16 12:56 | 45.82366 | 6.62452 | 23978 ft | 344 kts | 348° |
| 2026-04-16 12:56 | 45.84721 | 6.61810 | 23480 ft | 344 kts | 348° |
| 2026-04-16 12:56 | 45.87041 | 6.61179 | 23013 ft | 342 kts | 348° |
| 2026-04-16 12:56 | 45.89372 | 6.60547 | 22550 ft | 340 kts | 348° |
| 2026-04-16 12:57 | 45.91696 | 6.59916 | 22111 ft | 338 kts | 348° |
| 2026-04-16 12:57 | 45.93995 | 6.59290 | 21666 ft | 336 kts | 348° |
| 2026-04-16 12:57 | 45.96289 | 6.58664 | 21229 ft | 334 kts | 348° |
| 2026-04-16 12:57 | 45.98572 | 6.58044 | 20807 ft | 331 kts | 347° |
| 2026-04-16 12:58 | 46.00831 | 6.57432 | 20362 ft | 330 kts | 347° |
| 2026-04-16 12:58 | 46.03041 | 6.56576 | 19948 ft | 328 kts | 336° |
| 2026-04-16 12:58 | 46.05018 | 6.55037 | 19548 ft | 326 kts | 323° |
| 2026-04-16 12:58 | 46.06718 | 6.52827 | 19098 ft | 325 kts | 309° |
| 2026-04-16 12:59 | 46.08020 | 6.50233 | 18679 ft | 324 kts | 303° |
| 2026-04-16 12:59 | 46.09287 | 6.47535 | 18237 ft | 324 kts | 303° |
| 2026-04-16 12:59 | 46.10553 | 6.44851 | 17814 ft | 323 kts | 304° |
| 2026-04-16 13:00 | 46.13072 | 6.39512 | 16999 ft | 321 kts | 303° |
| 2026-04-16 13:00 | 46.14322 | 6.36859 | 16612 ft | 319 kts | 303° |
| 2026-04-16 13:00 | 46.15568 | 6.34214 | 16212 ft | 318 kts | 303° |
| 2026-04-16 13:00 | 46.16815 | 6.31564 | 15784 ft | 318 kts | 303° |
| 2026-04-16 13:01 | 46.17831 | 6.28821 | 15577 ft | 310 kts | 288° |
| 2026-04-16 13:01 | 46.18121 | 6.25785 | 15317 ft | 307 kts | 267° |
| 2026-04-16 13:01 | 46.17595 | 6.22805 | 14978 ft | 308 kts | 245° |
| 2026-04-16 13:01 | 46.16329 | 6.20300 | 14653 ft | 311 kts | 229° |
| 2026-04-16 13:02 | 46.14820 | 6.18064 | 14307 ft | 310 kts | 227° |
| 2026-04-16 13:02 | 46.13315 | 6.15851 | 13681 ft | 308 kts | 229° |
| 2026-04-16 13:02 | 46.11809 | 6.13669 | 13010 ft | 305 kts | 227° |
| 2026-04-16 13:02 | 46.10325 | 6.11504 | 12385 ft | 301 kts | 227° |
| 2026-04-16 13:03 | 46.08872 | 6.09354 | 11742 ft | 298 kts | 226° |
| 2026-04-16 13:03 | 46.07452 | 6.07203 | 11088 ft | 295 kts | 227° |
| 2026-04-16 13:03 | 46.06078 | 6.05081 | 10510 ft | 291 kts | 227° |
| 2026-04-16 13:03 | 46.04727 | 6.02956 | 10000 ft | 284 kts | 227° |
| 2026-04-16 13:04 | 46.03401 | 6.00853 | 9344 ft | 282 kts | 227° |
| 2026-04-16 13:04 | 46.02083 | 5.98778 | 8644 ft | 281 kts | 227° |
| 2026-04-16 13:04 | 46.00749 | 5.96711 | 7921 ft | 282 kts | 227° |
| 2026-04-16 13:04 | 45.99423 | 5.94655 | 7264 ft | 280 kts | 227° |
| 2026-04-16 13:05 | 45.98082 | 5.92615 | 6565 ft | 281 kts | 227° |
| 2026-04-16 13:05 | 45.96952 | 5.90395 | 6092 ft | 274 kts | 251° |
| 2026-04-16 13:05 | 45.96663 | 5.87705 | 5971 ft | 272 kts | 280° |
| 2026-04-16 13:05 | 45.97287 | 5.85211 | 5983 ft | 265 kts | 308° |
| 2026-04-16 13:06 | 45.98584 | 5.83497 | 5980 ft | 244 kts | 331° |
| 2026-04-16 13:06 | 46.00067 | 5.82551 | 5986 ft | 226 kts | 346° |
| 2026-04-16 13:06 | 46.01556 | 5.82223 | 5975 ft | 212 kts | 0° |
| 2026-04-16 13:06 | 46.02976 | 5.82423 | 5978 ft | 200 kts | 14° |
| 2026-04-16 13:07 | 46.04236 | 5.83050 | 5978 ft | 186 kts | 27° |
| 2026-04-16 13:07 | 46.05328 | 5.84027 | 5989 ft | 183 kts | 38° |
| 2026-04-16 13:07 | 46.06263 | 5.85297 | 5927 ft | 186 kts | 44° |
| 2026-04-16 13:07 | 46.07178 | 5.86625 | 5722 ft | 187 kts | 44° |
| 2026-04-16 13:08 | 46.08092 | 5.87954 | 5491 ft | 186 kts | 44° |
| 2026-04-16 13:08 | 46.08984 | 5.89251 | 5287 ft | 181 kts | 43° |
| 2026-04-16 13:08 | 46.09833 | 5.90485 | 5054 ft | 183 kts | 45° |
| 2026-04-16 13:08 | 46.10741 | 5.91806 | 4809 ft | 186 kts | 44° |
| 2026-04-16 13:09 | 46.11647 | 5.93126 | 4550 ft | 185 kts | 44° |
| 2026-04-16 13:09 | 46.12541 | 5.94429 | 4308 ft | 178 kts | 43° |
| 2026-04-16 13:09 | 46.13368 | 5.95635 | 4087 ft | 159 kts | 44° |
| 2026-04-16 13:09 | 46.14119 | 5.96730 | 3868 ft | 149 kts | 43° |
| 2026-04-16 13:10 | 46.14832 | 5.97770 | 3674 ft | 144 kts | 45° |
| 2026-04-16 13:10 | 46.15533 | 5.98792 | 3497 ft | 142 kts | 44° |
| 2026-04-16 13:10 | 46.16227 | 5.99804 | 3300 ft | 142 kts | 44° |
| 2026-04-16 13:10 | 46.16920 | 6.00817 | 3112 ft | 143 kts | 44° |
| 2026-04-16 13:11 | 46.17614 | 6.01831 | 2976 ft | 140 kts | 43° |
| 2026-04-16 13:11 | 46.18310 | 6.02801 | 2836 ft | 142 kts | 46° |
| 2026-04-16 13:11 | 46.18992 | 6.03825 | 2560 ft | 140 kts | 44° |
| 2026-04-16 13:11 | 46.19678 | 6.04843 | 2385 ft | 142 kts | 45° |
| 2026-04-16 13:12 | 46.20376 | 6.05871 | 2167 ft | 140 kts | 43° |
| 2026-04-16 13:12 | 46.21061 | 6.06876 | 1979 ft | 142 kts | 44° |
| 2026-04-16 13:12 | 46.21752 | 6.07886 | 1751 ft | 141 kts | 44° |
| 2026-04-16 13:12 | 46.22442 | 6.08896 | 1560 ft | 140 kts | 45° |
| 2026-04-16 13:13 | 46.23121 | 6.09889 | 1418 ft | 132 kts | 46° |
| 2026-04-16 13:13 | 46.23673 | 6.10701 | 1381 ft | 88 kts | 45° |
| 2026-04-16 13:13 | 46.23981 | 6.11151 | 1377 ft | 33 kts | 45° |